KJAN/JAN METAR and TAF weather

Enter ICAO airport designator
Station Type Date Time Source
KJAN METAR 2021/05/11 22:54 UTC NOAA

KJAN 112254Z 09004KT 10SM SCT020 BKN120 BKN250 22/18 A2999 RMK AO2 SLP151 T02220178


Station Type Date Time Source
KJAN Decoded METAR 2021/05/11 22:54 UTC NOAA

Jackson, Jackson International Airport, MS, United States (KJAN) 32-19-11N 090-04-39W 89M
May 11, 2021 - 06:54 PM EDT / 2021.05.11 2254 UTC
Wind: from the E (090 degrees) at 5 MPH (4 KT):0
Visibility: 10 mile(s):0
Sky conditions: mostly cloudy
Temperature: 72.0 F (22.2 C)
Dew Point: 64.0 F (17.8 C)
Relative Humidity: 76%
Pressure (altimeter): 29.99 in. Hg (1015 hPa)
ob: KJAN 112254Z 09004KT 10SM SCT020 BKN120 BKN250 22/18 A2999 RMK AO2 SLP151 T02220178
cycle: 23

Station Type Date Time Source
KJAN TAF 2021/05/11 20:36 UTC NOAA

TAF
AMD KJAN 111933Z 1120/1218 16006KT P6SM VCSH SCT010 BKN100
FM120000 10008KT 4SM SHRA VCTS OVC007CB
FM120400 10008KT 4SM SHRA OVC004
FM120900 03008KT 6SM BR OVC004

Example: see airport list